sensor_id;sensor_type;location;lat;lon;timestamp;temperature;humidity
68578;SHT31;61668;45.388;11.784;2023-04-25T00:01:32;11.40;82.57
68578;SHT31;61668;45.388;11.784;2023-04-25T00:04:00;11.41;82.59
68578;SHT31;61668;45.388;11.784;2023-04-25T00:06:26;11.41;82.63
68578;SHT31;61668;45.388;11.784;2023-04-25T00:08:52;11.43;82.62
68578;SHT31;61668;45.388;11.784;2023-04-25T00:11:18;11.45;82.55
68578;SHT31;61668;45.388;11.784;2023-04-25T00:13:44;11.47;82.61
68578;SHT31;61668;45.388;11.784;2023-04-25T00:16:11;11.49;82.69
68578;SHT31;61668;45.388;11.784;2023-04-25T00:18:39;11.52;82.71
68578;SHT31;61668;45.388;11.784;2023-04-25T00:21:05;11.55;82.71
68578;SHT31;61668;45.388;11.784;2023-04-25T00:23:31;11.58;82.70
68578;SHT31;61668;45.388;11.784;2023-04-25T00:25:57;11.60;82.71
68578;SHT31;61668;45.388;11.784;2023-04-25T00:28:22;11.63;82.71
68578;SHT31;61668;45.388;11.784;2023-04-25T00:30:48;11.63;82.67
68578;SHT31;61668;45.388;11.784;2023-04-25T00:33:15;11.65;82.70
68578;SHT31;61668;45.388;11.784;2023-04-25T00:35:41;11.66;82.76
68578;SHT31;61668;45.388;11.784;2023-04-25T00:38:07;11.68;82.71
68578;SHT31;61668;45.388;11.784;2023-04-25T00:40:33;11.68;82.70
68578;SHT31;61668;45.388;11.784;2023-04-25T00:42:58;11.69;82.70
68578;SHT31;61668;45.388;11.784;2023-04-25T00:45:27;11.69;82.63
68578;SHT31;61668;45.388;11.784;2023-04-25T00:47:54;11.69;82.62
68578;SHT31;61668;45.388;11.784;2023-04-25T00:50:21;11.68;82.60
68578;SHT31;61668;45.388;11.784;2023-04-25T00:52:48;11.67;82.60
68578;SHT31;61668;45.388;11.784;2023-04-25T00:55:14;11.67;82.59
68578;SHT31;61668;45.388;11.784;2023-04-25T00:57:40;11.66;82.60
68578;SHT31;61668;45.388;11.784;2023-04-25T01:00:08;11.67;82.60
68578;SHT31;61668;45.388;11.784;2023-04-25T01:02:36;11.66;82.64
68578;SHT31;61668;45.388;11.784;2023-04-25T01:05:03;11.67;82.70
68578;SHT31;61668;45.388;11.784;2023-04-25T01:07:29;11.68;82.71
68578;SHT31;61668;45.388;11.784;2023-04-25T01:09:55;11.70;82.75
68578;SHT31;61668;45.388;11.784;2023-04-25T01:12:22;11.71;82.80
68578;SHT31;61668;45.388;11.784;2023-04-25T01:14:48;11.73;82.89
68578;SHT31;61668;45.388;11.784;2023-04-25T01:17:14;11.75;82.88
68578;SHT31;61668;45.388;11.784;2023-04-25T01:19:41;11.76;82.81
68578;SHT31;61668;45.388;11.784;2023-04-25T01:22:07;11.77;82.80
68578;SHT31;61668;45.388;11.784;2023-04-25T01:24:35;11.79;82.80
68578;SHT31;61668;45.388;11.784;2023-04-25T01:27:02;11.81;82.84
68578;SHT31;61668;45.388;11.784;2023-04-25T01:29:28;11.84;82.88
68578;SHT31;61668;45.388;11.784;2023-04-25T01:31:54;11.85;82.86
68578;SHT31;61668;45.388;11.784;2023-04-25T01:34:20;11.87;82.75
68578;SHT31;61668;45.388;11.784;2023-04-25T01:36:49;11.89;82.73
68578;SHT31;61668;45.388;11.784;2023-04-25T01:39:19;11.91;82.73
68578;SHT31;61668;45.388;11.784;2023-04-25T01:41:46;11.93;82.71
68578;SHT31;61668;45.388;11.784;2023-04-25T01:44:13;11.94;82.71
68578;SHT31;61668;45.388;11.784;2023-04-25T01:46:39;11.96;82.71
68578;SHT31;61668;45.388;11.784;2023-04-25T01:49:05;11.98;82.71
68578;SHT31;61668;45.388;11.784;2023-04-25T01:51:31;11.98;82.79
68578;SHT31;61668;45.388;11.784;2023-04-25T01:53:57;11.99;82.80
68578;SHT31;61668;45.388;11.784;2023-04-25T01:56:23;11.99;82.80
68578;SHT31;61668;45.388;11.784;2023-04-25T01:58:50;11.99;82.88
68578;SHT31;61668;45.388;11.784;2023-04-25T02:01:17;12.01;82.90
68578;SHT31;61668;45.388;11.784;2023-04-25T02:03:43;12.03;82.97
68578;SHT31;61668;45.388;11.784;2023-04-25T02:06:09;12.05;82.92
68578;SHT31;61668;45.388;11.784;2023-04-25T02:08:35;12.06;82.91
68578;SHT31;61668;45.388;11.784;2023-04-25T02:11:02;12.09;82.92
68578;SHT31;61668;45.388;11.784;2023-04-25T02:13:28;12.12;82.90
68578;SHT31;61668;45.388;11.784;2023-04-25T02:15:54;12.13;82.88
68578;SHT31;61668;45.388;11.784;2023-04-25T02:18:19;12.14;82.87
68578;SHT31;61668;45.388;11.784;2023-04-25T02:20:46;12.16;82.83
68578;SHT31;61668;45.388;11.784;2023-04-25T02:23:12;12.14;82.78
68578;SHT31;61668;45.388;11.784;2023-04-25T02:25:38;12.07;82.81
68578;SHT31;61668;45.388;11.784;2023-04-25T02:28:04;12.01;82.98
68578;SHT31;61668;45.388;11.784;2023-04-25T02:30:29;12.00;83.14
68578;SHT31;61668;45.388;11.784;2023-04-25T02:32:55;12.00;83.35
68578;SHT31;61668;45.388;11.784;2023-04-25T02:35:21;12.00;83.50
68578;SHT31;61668;45.388;11.784;2023-04-25T02:37:47;12.00;83.64
68578;SHT31;61668;45.388;11.784;2023-04-25T02:40:12;11.98;83.83
68578;SHT31;61668;45.388;11.784;2023-04-25T02:42:38;11.99;83.91
68578;SHT31;61668;45.388;11.784;2023-04-25T02:45:04;12.00;84.02
68578;SHT31;61668;45.388;11.784;2023-04-25T02:47:30;12.00;84.17
68578;SHT31;61668;45.388;11.784;2023-04-25T02:49:56;12.01;84.29
68578;SHT31;61668;45.388;11.784;2023-04-25T02:52:22;12.03;84.40
68578;SHT31;61668;45.388;11.784;2023-04-25T02:54:48;12.03;84.49
68578;SHT31;61668;45.388;11.784;2023-04-25T02:57:14;12.05;84.50
68578;SHT31;61668;45.388;11.784;2023-04-25T02:59:39;12.06;84.44
68578;SHT31;61668;45.388;11.784;2023-04-25T03:02:05;12.09;84.44
68578;SHT31;61668;45.388;11.784;2023-04-25T03:04:31;12.12;84.45
68578;SHT31;61668;45.388;11.784;2023-04-25T03:06:58;12.15;84.44
68578;SHT31;61668;45.388;11.784;2023-04-25T03:09:24;12.17;84.43
68578;SHT31;61668;45.388;11.784;2023-04-25T03:11:50;12.18;84.52
68578;SHT31;61668;45.388;11.784;2023-04-25T03:14:16;12.19;84.56
68578;SHT31;61668;45.388;11.784;2023-04-25T03:16:41;12.18;84.63
68578;SHT31;61668;45.388;11.784;2023-04-25T03:19:07;12.18;84.70
68578;SHT31;61668;45.388;11.784;2023-04-25T03:21:33;12.19;84.63
68578;SHT31;61668;45.388;11.784;2023-04-25T03:24:01;12.20;84.54
68578;SHT31;61668;45.388;11.784;2023-04-25T03:26:29;12.22;84.55
68578;SHT31;61668;45.388;11.784;2023-04-25T03:28:54;12.22;84.53
68578;SHT31;61668;45.388;11.784;2023-04-25T03:31:20;12.24;84.57
68578;SHT31;61668;45.388;11.784;2023-04-25T03:33:47;12.24;84.57
68578;SHT31;61668;45.388;11.784;2023-04-25T03:36:13;12.26;84.52
68578;SHT31;61668;45.388;11.784;2023-04-25T03:38:39;12.26;84.62
68578;SHT31;61668;45.388;11.784;2023-04-25T03:41:06;12.27;84.68
68578;SHT31;61668;45.388;11.784;2023-04-25T03:43:32;12.28;84.71
68578;SHT31;61668;45.388;11.784;2023-04-25T03:45:58;12.29;84.80
68578;SHT31;61668;45.388;11.784;2023-04-25T03:48:23;12.30;84.84
68578;SHT31;61668;45.388;11.784;2023-04-25T03:50:51;12.31;84.90
68578;SHT31;61668;45.388;11.784;2023-04-25T03:53:17;12.30;84.90
68578;SHT31;61668;45.388;11.784;2023-04-25T03:55:43;12.32;84.91
68578;SHT31;61668;45.388;11.784;2023-04-25T03:58:09;12.32;84.96
68578;SHT31;61668;45.388;11.784;2023-04-25T04:00:35;12.33;84.96
68578;SHT31;61668;45.388;11.784;2023-04-25T04:03:01;12.33;84.97
68578;SHT31;61668;45.388;11.784;2023-04-25T04:05:27;12.34;85.00
68578;SHT31;61668;45.388;11.784;2023-04-25T04:07:53;12.36;84.99
68578;SHT31;61668;45.388;11.784;2023-04-25T04:10:20;12.38;85.00
68578;SHT31;61668;45.388;11.784;2023-04-25T04:12:46;12.38;85.02
68578;SHT31;61668;45.388;11.784;2023-04-25T04:15:12;12.39;85.06
68578;SHT31;61668;45.388;11.784;2023-04-25T04:17:38;12.39;85.12
68578;SHT31;61668;45.388;11.784;2023-04-25T04:20:04;12.40;85.19
68578;SHT31;61668;45.388;11.784;2023-04-25T04:22:31;12.40;85.28
68578;SHT31;61668;45.388;11.784;2023-04-25T04:24:57;12.41;85.42
68578;SHT31;61668;45.388;11.784;2023-04-25T04:27:23;12.42;85.42
68578;SHT31;61668;45.388;11.784;2023-04-25T04:29:49;12.42;85.43
68578;SHT31;61668;45.388;11.784;2023-04-25T04:32:17;12.42;85.52
68578;SHT31;61668;45.388;11.784;2023-04-25T04:34:43;12.41;85.91
68578;SHT31;61668;45.388;11.784;2023-04-25T04:37:09;12.38;86.17
68578;SHT31;61668;45.388;11.784;2023-04-25T04:39:38;12.34;86.24
68578;SHT31;61668;45.388;11.784;2023-04-25T04:42:03;12.30;86.40
68578;SHT31;61668;45.388;11.784;2023-04-25T04:44:30;12.28;86.03
68578;SHT31;61668;45.388;11.784;2023-04-25T04:47:00;12.27;85.69
68578;SHT31;61668;45.388;11.784;2023-04-25T04:49:27;12.27;85.51
68578;SHT31;61668;45.388;11.784;2023-04-25T04:51:52;12.23;85.27
68578;SHT31;61668;45.388;11.784;2023-04-25T04:54:19;12.19;85.24
68578;SHT31;61668;45.388;11.784;2023-04-25T04:56:45;12.16;85.30
68578;SHT31;61668;45.388;11.784;2023-04-25T04:59:11;12.12;85.37
68578;SHT31;61668;45.388;11.784;2023-04-25T05:01:36;12.07;85.33
68578;SHT31;61668;45.388;11.784;2023-04-25T05:04:02;12.03;85.24
68578;SHT31;61668;45.388;11.784;2023-04-25T05:06:29;12.00;85.10
68578;SHT31;61668;45.388;11.784;2023-04-25T05:08:56;11.97;85.08
68578;SHT31;61668;45.388;11.784;2023-04-25T05:11:23;11.94;85.07
68578;SHT31;61668;45.388;11.784;2023-04-25T05:13:51;11.92;85.22
68578;SHT31;61668;45.388;11.784;2023-04-25T05:16:18;11.91;85.23
68578;SHT31;61668;45.388;11.784;2023-04-25T05:18:45;11.89;85.22
68578;SHT31;61668;45.388;11.784;2023-04-25T05:21:12;11.90;85.40
68578;SHT31;61668;45.388;11.784;2023-04-25T05:23:38;11.89;85.54
68578;SHT31;61668;45.388;11.784;2023-04-25T05:26:03;11.90;85.63
68578;SHT31;61668;45.388;11.784;2023-04-25T05:28:30;11.90;85.86
68578;SHT31;61668;45.388;11.784;2023-04-25T05:30:56;11.91;85.93
68578;SHT31;61668;45.388;11.784;2023-04-25T05:33:22;11.92;86.08
68578;SHT31;61668;45.388;11.784;2023-04-25T05:35:49;11.92;86.08
68578;SHT31;61668;45.388;11.784;2023-04-25T05:38:15;11.93;85.97
68578;SHT31;61668;45.388;11.784;2023-04-25T05:40:41;11.94;86.00
68578;SHT31;61668;45.388;11.784;2023-04-25T05:43:07;11.94;85.93
68578;SHT31;61668;45.388;11.784;2023-04-25T05:45:33;11.93;86.02
68578;SHT31;61668;45.388;11.784;2023-04-25T05:47:58;11.93;86.16
68578;SHT31;61668;45.388;11.784;2023-04-25T05:50:24;11.93;86.31
68578;SHT31;61668;45.388;11.784;2023-04-25T05:52:50;11.95;86.39
68578;SHT31;61668;45.388;11.784;2023-04-25T05:55:16;11.96;86.41
68578;SHT31;61668;45.388;11.784;2023-04-25T05:57:42;11.97;86.50
68578;SHT31;61668;45.388;11.784;2023-04-25T06:00:11;11.97;86.49
68578;SHT31;61668;45.388;11.784;2023-04-25T06:02:40;11.99;86.50
68578;SHT31;61668;45.388;11.784;2023-04-25T06:05:06;12.00;86.53
68578;SHT31;61668;45.388;11.784;2023-04-25T06:07:33;12.01;86.48
68578;SHT31;61668;45.388;11.784;2023-04-25T06:09:59;12.02;86.43
68578;SHT31;61668;45.388;11.784;2023-04-25T06:12:26;12.02;86.52
68578;SHT31;61668;45.388;11.784;2023-04-25T06:14:52;12.02;86.59
68578;SHT31;61668;45.388;11.784;2023-04-25T06:17:17;12.02;86.61
68578;SHT31;61668;45.388;11.784;2023-04-25T06:19:43;12.01;86.67
68578;SHT31;61668;45.388;11.784;2023-04-25T06:22:09;12.01;86.58
68578;SHT31;61668;45.388;11.784;2023-04-25T06:24:35;12.00;86.69
68578;SHT31;61668;45.388;11.784;2023-04-25T06:27:01;11.98;86.58
68578;SHT31;61668;45.388;11.784;2023-04-25T06:29:26;11.98;86.53
68578;SHT31;61668;45.388;11.784;2023-04-25T06:31:52;11.96;86.35
68578;SHT31;61668;45.388;11.784;2023-04-25T06:34:18;11.95;85.89
68578;SHT31;61668;45.388;11.784;2023-04-25T06:36:44;11.96;85.52
68578;SHT31;61668;45.388;11.784;2023-04-25T06:39:10;11.97;85.43
68578;SHT31;61668;45.388;11.784;2023-04-25T06:41:36;11.98;85.36
68578;SHT31;61668;45.388;11.784;2023-04-25T06:44:02;11.98;85.48
68578;SHT31;61668;45.388;11.784;2023-04-25T06:46:27;11.96;85.27
68578;SHT31;61668;45.388;11.784;2023-04-25T06:48:53;11.94;85.16
68578;SHT31;61668;45.388;11.784;2023-04-25T06:51:19;11.91;85.25
68578;SHT31;61668;45.388;11.784;2023-04-25T06:53:45;11.89;85.39
68578;SHT31;61668;45.388;11.784;2023-04-25T06:56:10;11.85;85.48
68578;SHT31;61668;45.388;11.784;2023-04-25T06:58:36;11.80;85.32
68578;SHT31;61668;45.388;11.784;2023-04-25T07:01:02;11.77;85.22
68578;SHT31;61668;45.388;11.784;2023-04-25T07:03:28;11.74;85.30
68578;SHT31;61668;45.388;11.784;2023-04-25T07:05:54;11.71;85.37
68578;SHT31;61668;45.388;11.784;2023-04-25T07:08:20;11.68;85.41
68578;SHT31;61668;45.388;11.784;2023-04-25T07:10:46;11.64;85.47
68578;SHT31;61668;45.388;11.784;2023-04-25T07:13:12;11.61;85.38
68578;SHT31;61668;45.388;11.784;2023-04-25T07:15:37;11.59;85.36
68578;SHT31;61668;45.388;11.784;2023-04-25T07:18:03;11.53;85.16
68578;SHT31;61668;45.388;11.784;2023-04-25T07:20:29;11.50;85.18
68578;SHT31;61668;45.388;11.784;2023-04-25T07:22:56;11.46;85.45
68578;SHT31;61668;45.388;11.784;2023-04-25T07:25:22;11.40;85.60
68578;SHT31;61668;45.388;11.784;2023-04-25T07:27:48;11.37;85.85
68578;SHT31;61668;45.388;11.784;2023-04-25T07:30:14;11.33;86.11
68578;SHT31;61668;45.388;11.784;2023-04-25T07:32:40;11.30;86.16
68578;SHT31;61668;45.388;11.784;2023-04-25T07:35:06;11.27;86.06
68578;SHT31;61668;45.388;11.784;2023-04-25T07:37:35;11.25;86.10
68578;SHT31;61668;45.388;11.784;2023-04-25T07:40:02;11.24;86.30
68578;SHT31;61668;45.388;11.784;2023-04-25T07:42:29;11.23;86.28
68578;SHT31;61668;45.388;11.784;2023-04-25T07:44:55;11.23;86.27
68578;SHT31;61668;45.388;11.784;2023-04-25T07:47:21;11.23;86.20
68578;SHT31;61668;45.388;11.784;2023-04-25T07:49:47;11.23;86.20
68578;SHT31;61668;45.388;11.784;2023-04-25T07:52:13;11.25;86.24
68578;SHT31;61668;45.388;11.784;2023-04-25T07:54:39;11.24;86.20
68578;SHT31;61668;45.388;11.784;2023-04-25T07:57:05;11.26;86.18
68578;SHT31;61668;45.388;11.784;2023-04-25T07:59:34;11.27;86.19
68578;SHT31;61668;45.388;11.784;2023-04-25T08:02:00;11.27;86.26
68578;SHT31;61668;45.388;11.784;2023-04-25T08:04:27;11.28;86.30
68578;SHT31;61668;45.388;11.784;2023-04-25T08:06:53;11.28;86.35
68578;SHT31;61668;45.388;11.784;2023-04-25T08:09:19;11.28;86.40
68578;SHT31;61668;45.388;11.784;2023-04-25T08:11:46;11.29;86.47
68578;SHT31;61668;45.388;11.784;2023-04-25T08:14:12;11.30;86.45
68578;SHT31;61668;45.388;11.784;2023-04-25T08:16:38;11.32;86.50
68578;SHT31;61668;45.388;11.784;2023-04-25T08:19:05;11.32;86.53
68578;SHT31;61668;45.388;11.784;2023-04-25T08:21:31;11.33;86.63
68578;SHT31;61668;45.388;11.784;2023-04-25T08:23:57;11.33;86.71
68578;SHT31;61668;45.388;11.784;2023-04-25T08:26:26;11.33;86.85
68578;SHT31;61668;45.388;11.784;2023-04-25T08:28:53;11.32;86.99
68578;SHT31;61668;45.388;11.784;2023-04-25T08:31:19;11.33;87.06
68578;SHT31;61668;45.388;11.784;2023-04-25T08:33:45;11.31;87.06
68578;SHT31;61668;45.388;11.784;2023-04-25T08:36:11;11.30;87.24
68578;SHT31;61668;45.388;11.784;2023-04-25T08:38:37;11.29;87.33
68578;SHT31;61668;45.388;11.784;2023-04-25T08:41:03;11.28;87.54
68578;SHT31;61668;45.388;11.784;2023-04-25T08:43:30;11.27;87.79
68578;SHT31;61668;45.388;11.784;2023-04-25T08:46:00;11.25;88.29
68578;SHT31;61668;45.388;11.784;2023-04-25T08:48:29;11.23;88.43
68578;SHT31;61668;45.388;11.784;2023-04-25T08:51:00;11.24;88.67
68578;SHT31;61668;45.388;11.784;2023-04-25T08:53:28;11.27;88.78
68578;SHT31;61668;45.388;11.784;2023-04-25T08:55:57;11.28;88.75
68578;SHT31;61668;45.388;11.784;2023-04-25T08:58:26;11.34;88.70
68578;SHT31;61668;45.388;11.784;2023-04-25T09:00:53;11.39;88.60
68578;SHT31;61668;45.388;11.784;2023-04-25T09:03:20;11.46;88.39
68578;SHT31;61668;45.388;11.784;2023-04-25T09:05:45;11.55;88.13
68578;SHT31;61668;45.388;11.784;2023-04-25T09:08:11;11.63;88.12
68578;SHT31;61668;45.388;11.784;2023-04-25T09:10:37;11.73;87.97
68578;SHT31;61668;45.388;11.784;2023-04-25T09:13:04;11.82;87.90
68578;SHT31;61668;45.388;11.784;2023-04-25T09:15:30;11.95;87.82
68578;SHT31;61668;45.388;11.784;2023-04-25T09:17:57;12.09;87.34
68578;SHT31;61668;45.388;11.784;2023-04-25T09:20:24;12.20;86.85
68578;SHT31;61668;45.388;11.784;2023-04-25T09:23:03;12.28;86.22
68578;SHT31;61668;45.388;11.784;2023-04-25T09:25:35;12.40;86.26
68578;SHT31;61668;45.388;11.784;2023-04-25T09:28:04;12.53;85.80
68578;SHT31;61668;45.388;11.784;2023-04-25T09:30:32;12.64;85.47
68578;SHT31;61668;45.388;11.784;2023-04-25T09:33:04;12.79;85.15
68578;SHT31;61668;45.388;11.784;2023-04-25T09:35:36;12.98;84.44
68578;SHT31;61668;45.388;11.784;2023-04-25T09:38:07;13.21;84.45
68578;SHT31;61668;45.388;11.784;2023-04-25T09:40:45;13.64;84.07
68578;SHT31;61668;45.388;11.784;2023-04-25T09:45:48;14.16;82.64
68578;SHT31;61668;45.388;11.784;2023-04-25T09:48:22;14.23;82.66
68578;SHT31;61668;45.388;11.784;2023-04-25T09:53:45;14.36;81.58
68578;SHT31;61668;45.388;11.784;2023-04-25T09:56:15;14.46;80.76
68578;SHT31;61668;45.388;11.784;2023-04-25T09:58:41;14.50;78.91
68578;SHT31;61668;45.388;11.784;2023-04-25T10:01:08;14.58;79.20
68578;SHT31;61668;45.388;11.784;2023-04-25T10:03:39;14.68;78.33
68578;SHT31;61668;45.388;11.784;2023-04-25T10:06:19;14.77;77.90
68578;SHT31;61668;45.388;11.784;2023-04-25T10:08:49;14.96;77.75
68578;SHT31;61668;45.388;11.784;2023-04-25T10:11:19;15.06;77.10
68578;SHT31;61668;45.388;11.784;2023-04-25T10:13:48;15.15;76.88
68578;SHT31;61668;45.388;11.784;2023-04-25T10:16:14;15.22;76.67
68578;SHT31;61668;45.388;11.784;2023-04-25T10:18:41;15.19;76.36
68578;SHT31;61668;45.388;11.784;2023-04-25T10:21:10;15.10;75.38
68578;SHT31;61668;45.388;11.784;2023-04-25T10:23:38;15.01;75.23
68578;SHT31;61668;45.388;11.784;2023-04-25T10:26:04;14.96;74.80
68578;SHT31;61668;45.388;11.784;2023-04-25T10:28:33;14.88;75.23
68578;SHT31;61668;45.388;11.784;2023-04-25T10:31:27;14.98;75.73
68578;SHT31;61668;45.388;11.784;2023-04-25T10:33:56;15.11;75.05
68578;SHT31;61668;45.388;11.784;2023-04-25T10:36:22;15.16;73.86
68578;SHT31;61668;45.388;11.784;2023-04-25T10:38:52;15.12;74.15
68578;SHT31;61668;45.388;11.784;2023-04-25T10:41:19;15.05;73.57
68578;SHT31;61668;45.388;11.784;2023-04-25T10:43:48;14.99;73.70
68578;SHT31;61668;45.388;11.784;2023-04-25T10:46:16;14.94;73.90
68578;SHT31;61668;45.388;11.784;2023-04-25T10:48:45;14.87;73.22
68578;SHT31;61668;45.388;11.784;2023-04-25T10:51:23;14.78;73.04
68578;SHT31;61668;45.388;11.784;2023-04-25T10:56:33;14.75;73.41
68578;SHT31;61668;45.388;11.784;2023-04-25T11:04:19;14.78;71.66
68578;SHT31;61668;45.388;11.784;2023-04-25T11:09:40;15.22;70.27
68578;SHT31;61668;45.388;11.784;2023-04-25T11:12:09;15.42;70.27
68578;SHT31;61668;45.388;11.784;2023-04-25T11:14:37;15.68;70.37
68578;SHT31;61668;45.388;11.784;2023-04-25T11:17:02;15.94;70.02
68578;SHT31;61668;45.388;11.784;2023-04-25T11:19:29;16.16;68.44
68578;SHT31;61668;45.388;11.784;2023-04-25T11:21:55;16.32;66.09
68578;SHT31;61668;45.388;11.784;2023-04-25T11:24:30;16.48;65.72
68578;SHT31;61668;45.388;11.784;2023-04-25T11:27:00;16.66;64.10
68578;SHT31;61668;45.388;11.784;2023-04-25T11:29:28;16.77;63.24
68578;SHT31;61668;45.388;11.784;2023-04-25T11:31:55;16.88;62.71
68578;SHT31;61668;45.388;11.784;2023-04-25T11:34:25;16.99;62.96
68578;SHT31;61668;45.388;11.784;2023-04-25T11:36:55;17.08;62.51
68578;SHT31;61668;45.388;11.784;2023-04-25T11:39:23;17.13;61.98
68578;SHT31;61668;45.388;11.784;2023-04-25T11:41:50;17.26;61.47
68578;SHT31;61668;45.388;11.784;2023-04-25T11:44:18;17.42;62.00
68578;SHT31;61668;45.388;11.784;2023-04-25T11:46:45;17.56;61.29
68578;SHT31;61668;45.388;11.784;2023-04-25T11:49:12;17.65;60.70
68578;SHT31;61668;45.388;11.784;2023-04-25T11:51:43;17.70;59.93
68578;SHT31;61668;45.388;11.784;2023-04-25T11:54:11;17.77;59.81
68578;SHT31;61668;45.388;11.784;2023-04-25T11:56:37;17.89;59.93
68578;SHT31;61668;45.388;11.784;2023-04-25T11:59:10;17.93;58.28
68578;SHT31;61668;45.388;11.784;2023-04-25T12:01:37;17.91;57.69
68578;SHT31;61668;45.388;11.784;2023-04-25T12:06:46;18.02;57.85
68578;SHT31;61668;45.388;11.784;2023-04-25T12:09:14;18.13;57.80
68578;SHT31;61668;45.388;11.784;2023-04-25T12:11:52;18.26;57.57
68578;SHT31;61668;45.388;11.784;2023-04-25T12:14:26;18.44;55.96
68578;SHT31;61668;45.388;11.784;2023-04-25T12:16:55;18.64;55.12
68578;SHT31;61668;45.388;11.784;2023-04-25T12:19:23;18.66;55.35
68578;SHT31;61668;45.388;11.784;2023-04-25T12:21:50;18.69;55.61
68578;SHT31;61668;45.388;11.784;2023-04-25T12:24:17;18.74;54.98
68578;SHT31;61668;45.388;11.784;2023-04-25T12:26:52;18.78;54.90
68578;SHT31;61668;45.388;11.784;2023-04-25T12:29:24;18.88;55.15
68578;SHT31;61668;45.388;11.784;2023-04-25T12:31:52;18.93;54.19
68578;SHT31;61668;45.388;11.784;2023-04-25T12:34:20;18.94;53.76
68578;SHT31;61668;45.388;11.784;2023-04-25T12:36:47;18.92;53.38
68578;SHT31;61668;45.388;11.784;2023-04-25T12:39:15;18.84;53.54
68578;SHT31;61668;45.388;11.784;2023-04-25T12:41:42;18.71;53.08
68578;SHT31;61668;45.388;11.784;2023-04-25T12:44:09;18.59;53.70
68578;SHT31;61668;45.388;11.784;2023-04-25T12:46:36;18.48;54.01
68578;SHT31;61668;45.388;11.784;2023-04-25T12:49:03;18.40;54.13
68578;SHT31;61668;45.388;11.784;2023-04-25T12:51:30;18.28;53.62
68578;SHT31;61668;45.388;11.784;2023-04-25T12:53:58;18.19;54.44
68578;SHT31;61668;45.388;11.784;2023-04-25T12:56:28;18.09;55.13
68578;SHT31;61668;45.388;11.784;2023-04-25T12:58:54;17.96;55.85
68578;SHT31;61668;45.388;11.784;2023-04-25T13:01:21;17.84;55.86
68578;SHT31;61668;45.388;11.784;2023-04-25T13:03:47;17.74;56.49
68578;SHT31;61668;45.388;11.784;2023-04-25T13:06:14;17.67;56.58
68578;SHT31;61668;45.388;11.784;2023-04-25T13:08:41;17.56;56.66
68578;SHT31;61668;45.388;11.784;2023-04-25T13:11:07;17.46;57.33
68578;SHT31;61668;45.388;11.784;2023-04-25T13:13:34;17.34;57.25
68578;SHT31;61668;45.388;11.784;2023-04-25T13:16:00;17.23;57.50
68578;SHT31;61668;45.388;11.784;2023-04-25T13:18:27;17.12;57.53
68578;SHT31;61668;45.388;11.784;2023-04-25T13:20:56;17.03;58.09
68578;SHT31;61668;45.388;11.784;2023-04-25T13:23:24;16.97;58.56
68578;SHT31;61668;45.388;11.784;2023-04-25T13:25:51;16.93;59.19
68578;SHT31;61668;45.388;11.784;2023-04-25T13:28:18;16.88;58.92
68578;SHT31;61668;45.388;11.784;2023-04-25T13:30:44;16.81;58.61
68578;SHT31;61668;45.388;11.784;2023-04-25T13:33:10;16.75;58.93
68578;SHT31;61668;45.388;11.784;2023-04-25T13:35:37;16.72;59.11
68578;SHT31;61668;45.388;11.784;2023-04-25T13:38:03;16.70;58.93
68578;SHT31;61668;45.388;11.784;2023-04-25T13:40:30;16.69;59.13
68578;SHT31;61668;45.388;11.784;2023-04-25T13:42:57;16.72;59.66
68578;SHT31;61668;45.388;11.784;2023-04-25T13:45:23;16.73;59.27
68578;SHT31;61668;45.388;11.784;2023-04-25T13:47:48;16.72;59.33
68578;SHT31;61668;45.388;11.784;2023-04-25T13:50:14;16.70;59.34
68578;SHT31;61668;45.388;11.784;2023-04-25T13:52:41;16.70;59.55
68578;SHT31;61668;45.388;11.784;2023-04-25T13:55:08;16.67;59.21
68578;SHT31;61668;45.388;11.784;2023-04-25T13:57:35;16.61;59.43
68578;SHT31;61668;45.388;11.784;2023-04-25T14:00:02;16.53;59.50
68578;SHT31;61668;45.388;11.784;2023-04-25T14:02:33;16.45;59.65
68578;SHT31;61668;45.388;11.784;2023-04-25T14:05:03;16.40;60.20
68578;SHT31;61668;45.388;11.784;2023-04-25T14:07:30;16.37;60.45
68578;SHT31;61668;45.388;11.784;2023-04-25T14:09:56;16.34;60.74
68578;SHT31;61668;45.388;11.784;2023-04-25T14:12:24;16.28;60.88
68578;SHT31;61668;45.388;11.784;2023-04-25T14:14:50;16.21;60.82
68578;SHT31;61668;45.388;11.784;2023-04-25T14:17:19;16.19;61.33
68578;SHT31;61668;45.388;11.784;2023-04-25T14:19:46;16.15;61.68
68578;SHT31;61668;45.388;11.784;2023-04-25T14:22:13;16.12;61.76
68578;SHT31;61668;45.388;11.784;2023-04-25T14:24:42;16.07;61.52
68578;SHT31;61668;45.388;11.784;2023-04-25T14:27:08;16.03;61.98
68578;SHT31;61668;45.388;11.784;2023-04-25T14:29:36;16.01;62.42
68578;SHT31;61668;45.388;11.784;2023-04-25T14:32:02;15.98;63.08
68578;SHT31;61668;45.388;11.784;2023-04-25T14:34:27;15.95;63.23
68578;SHT31;61668;45.388;11.784;2023-04-25T14:36:53;15.93;63.53
68578;SHT31;61668;45.388;11.784;2023-04-25T14:39:19;15.92;63.71
68578;SHT31;61668;45.388;11.784;2023-04-25T14:41:45;15.91;63.83
68578;SHT31;61668;45.388;11.784;2023-04-25T14:44:10;15.90;63.87
68578;SHT31;61668;45.388;11.784;2023-04-25T14:46:36;15.93;64.06
68578;SHT31;61668;45.388;11.784;2023-04-25T14:49:03;15.97;63.89
68578;SHT31;61668;45.388;11.784;2023-04-25T14:51:29;16.02;63.33
68578;SHT31;61668;45.388;11.784;2023-04-25T14:53:55;16.06;63.31
68578;SHT31;61668;45.388;11.784;2023-04-25T14:56:21;16.09;62.76
68578;SHT31;61668;45.388;11.784;2023-04-25T14:58:48;16.10;62.51
68578;SHT31;61668;45.388;11.784;2023-04-25T15:01:14;16.08;62.25
68578;SHT31;61668;45.388;11.784;2023-04-25T15:03:40;16.06;62.60
68578;SHT31;61668;45.388;11.784;2023-04-25T15:06:06;16.05;62.70
68578;SHT31;61668;45.388;11.784;2023-04-25T15:08:32;16.03;62.84
68578;SHT31;61668;45.388;11.784;2023-04-25T15:10:58;16.00;62.73
68578;SHT31;61668;45.388;11.784;2023-04-25T15:13:24;15.99;62.88
68578;SHT31;61668;45.388;11.784;2023-04-25T15:15:51;15.98;62.80
68578;SHT31;61668;45.388;11.784;2023-04-25T15:18:22;16.00;62.99
68578;SHT31;61668;45.388;11.784;2023-04-25T15:20:49;15.99;62.86
68578;SHT31;61668;45.388;11.784;2023-04-25T15:23:17;15.97;63.40
68578;SHT31;61668;45.388;11.784;2023-04-25T15:25:44;15.95;63.96
68578;SHT31;61668;45.388;11.784;2023-04-25T15:28:10;15.92;64.43
68578;SHT31;61668;45.388;11.784;2023-04-25T15:30:40;15.89;64.83
68578;SHT31;61668;45.388;11.784;2023-04-25T15:33:05;15.85;65.17